Time;durP1;ratioP1;P1;durP2;ratioP2;P2;SDS_P1;SDS_P2;PMS_P1;PMS_P2;Temp;Humidity;BMP_temperature;BMP_pressure;BME280_temperature;BME280_humidity;BME280_pressure;Samples;Min_cycle;Max_cycle;Signal;HPM_P1;HPM_P2
2021/05/27 00:01:44;;;;;;;4.53;1.45;;;21.90;43.90;;;;;;5061805;28;20032;-76
2021/05/27 00:04:10;;;;;;;6.45;1.83;;;22.00;43.60;;;;;;5060907;28;20081;-76
2021/05/27 00:06:36;;;;;;;12.70;1.92;;;21.90;43.60;;;;;;5065722;28;20029;-76
2021/05/27 00:09:04;;;;;;;4.88;1.30;;;21.90;43.60;;;;;;5067992;28;20027;-76
2021/05/27 00:11:31;;;;;;;5.40;2.95;;;21.70;43.90;;;;;;5072671;28;20024;-77
2021/05/27 00:13:58;;;;;;;9.77;1.98;;;21.70;43.80;;;;;;5053961;28;20036;-77
2021/05/27 00:16:25;;;;;;;11.13;2.05;;;21.50;44.10;;;;;;5053718;28;20025;-76
2021/05/27 00:18:54;;;;;;;6.78;1.40;;;21.30;44.50;;;;;;5066118;28;20060;-76
2021/05/27 00:21:21;;;;;;;7.85;2.22;;;21.30;44.80;;;;;;5071573;28;20032;-76
2021/05/27 00:23:48;;;;;;;8.20;1.88;;;21.40;44.40;;;;;;5077619;28;20039;-76
2021/05/27 00:26:14;;;;;;;8.63;2.42;;;21.30;44.60;;;;;;5067713;28;20483;-76
2021/05/27 00:28:41;;;;;;;6.25;1.55;;;21.10;44.90;;;;;;5068329;28;20040;-75
2021/05/27 00:31:07;;;;;;;6.57;2.38;;;20.80;45.90;;;;;;5071736;28;20024;-75
2021/05/27 00:33:34;;;;;;;2.03;1.30;;;20.80;45.80;;;;;;5073381;28;20025;-76
2021/05/27 00:36:01;;;;;;;10.30;2.17;;;20.90;46.40;;;;;;5071243;28;20491;-77
2021/05/27 00:38:28;;;;;;;5.53;1.60;;;21.00;45.40;;;;;;5074095;28;20029;-76
2021/05/27 00:40:55;;;;;;;6.43;2.13;;;21.20;45.00;;;;;;5052175;28;20128;-76
2021/05/27 00:43:21;;;;;;;11.32;1.67;;;21.10;45.00;;;;;;5066937;28;20367;-77
2021/05/27 00:46:06;;;;;;;3.50;1.65;;;21.00;45.10;;;;;;5063542;28;20035;-75
2021/05/27 00:51:17;;;;;;;8.20;2.20;;;21.00;44.70;;;;;;5056347;28;20036;-75
2021/05/27 00:53:43;;;;;;;8.90;2.13;;;20.80;45.00;;;;;;5054477;28;20078;-76
2021/05/27 00:56:11;;;;;;;7.22;1.90;;;20.70;45.00;;;;;;5068927;28;20021;-76
2021/05/27 00:58:39;;;;;;;12.80;3.58;;;20.60;45.20;;;;;;5051169;28;20045;-77
2021/05/27 01:01:06;;;;;;;7.68;2.85;;;20.50;45.30;;;;;;5067509;28;20020;-77
2021/05/27 01:03:32;;;;;;;4.38;1.48;;;20.50;45.20;;;;;;5064911;28;20012;-78
2021/05/27 01:06:00;;;;;;;6.15;1.67;;;20.20;45.70;;;;;;5067675;28;20039;-77
2021/05/27 01:08:26;;;;;;;7.82;1.33;;;20.20;45.80;;;;;;5045482;28;20029;-78
2021/05/27 01:10:53;;;;;;;6.90;2.00;;;20.10;45.80;;;;;;5069163;28;20033;-77
2021/05/27 01:13:24;;;;;;;9.57;2.22;;;20.00;45.80;;;;;;5064881;28;20051;-77
2021/05/27 01:15:51;;;;;;;7.57;1.92;;;20.00;46.20;;;;;;5061903;28;20032;-76
2021/05/27 01:18:19;;;;;;;6.90;1.98;;;19.90;46.60;;;;;;5059445;28;20020;-77
2021/05/27 01:20:48;;;;;;;13.25;2.75;;;20.10;45.70;;;;;;5052513;28;20043;-77
2021/05/27 01:23:15;;;;;;;9.02;2.17;;;19.90;45.70;;;;;;5069751;28;20160;-77
2021/05/27 01:25:44;;;;;;;9.63;1.90;;;19.80;46.60;;;;;;5071778;28;20057;-76
2021/05/27 01:28:10;;;;;;;8.32;2.75;;;19.60;47.10;;;;;;5051799;28;20039;-77
2021/05/27 01:30:37;;;;;;;12.30;3.10;;;19.80;47.10;;;;;;5055986;28;20052;-77
2021/05/27 01:33:04;;;;;;;14.13;2.88;;;19.70;47.20;;;;;;5064821;28;20039;-77
2021/05/27 01:35:30;;;;;;;6.55;1.67;;;19.50;47.60;;;;;;5046788;28;20028;-78
2021/05/27 01:37:57;;;;;;;8.07;2.30;;;19.30;48.60;;;;;;5039484;28;20414;-77
2021/05/27 01:40:25;;;;;;;7.43;2.40;;;19.20;48.50;;;;;;5072433;28;20345;-77
2021/05/27 01:42:55;;;;;;;5.43;2.35;;;19.10;49.20;;;;;;5070679;28;20035;-77
2021/05/27 01:45:22;;;;;;;10.48;2.40;;;19.00;49.50;;;;;;5051864;28;20020;-76
2021/05/27 01:47:52;;;;;;;6.10;1.55;;;18.80;49.40;;;;;;5062185;28;20017;-77
2021/05/27 01:50:21;;;;;;;10.40;2.33;;;18.70;49.20;;;;;;5067360;28;20025;-77
2021/05/27 01:52:49;;;;;;;12.60;2.35;;;18.70;49.80;;;;;;5068955;28;20032;-78
2021/05/27 01:55:15;;;;;;;17.80;2.75;;;18.60;50.10;;;;;;5046759;28;20086;-78
2021/05/27 01:57:42;;;;;;;11.68;2.83;;;18.50;49.50;;;;;;5068663;28;20055;-78
2021/05/27 02:00:09;;;;;;;7.18;1.60;;;18.50;50.30;;;;;;5069239;28;20028;-79
2021/05/27 02:02:35;;;;;;;9.43;2.25;;;18.40;50.10;;;;;;5073801;28;20404;-79
2021/05/27 02:05:02;;;;;;;4.13;1.60;;;18.20;50.60;;;;;;5052793;28;20375;-78
2021/05/27 02:07:28;;;;;;;7.25;2.40;;;18.30;50.80;;;;;;5057211;28;20417;-77
2021/05/27 02:09:55;;;;;;;6.53;1.83;;;18.30;51.30;;;;;;5056368;28;20036;-77
2021/05/27 02:12:22;;;;;;;18.08;2.78;;;18.20;51.30;;;;;;5053771;28;20134;-78
2021/05/27 02:14:49;;;;;;;9.20;2.85;;;18.10;51.30;;;;;;5073001;28;20052;-77
2021/05/27 02:17:15;;;;;;;4.75;1.60;;;18.00;51.50;;;;;;5069003;28;20036;-77
2021/05/27 02:19:41;;;;;;;3.42;1.77;;;18.00;51.50;;;;;;5073415;28;20027;-77
2021/05/27 02:22:08;;;;;;;5.32;1.70;;;18.00;51.30;;;;;;5046906;28;20025;-77
2021/05/27 02:24:34;;;;;;;10.65;2.05;;;18.00;51.20;;;;;;5067712;28;20448;-77
2021/05/27 02:27:02;;;;;;;7.60;2.08;;;17.90;51.50;;;;;;5070523;28;20025;-77
2021/05/27 02:29:28;;;;;;;5.85;2.03;;;17.90;51.80;;;;;;5070903;28;20028;-77
2021/05/27 02:31:55;;;;;;;13.10;2.88;;;17.90;51.60;;;;;;5053324;28;20039;-77
2021/05/27 02:34:21;;;;;;;13.75;1.70;;;17.90;51.30;;;;;;5076398;28;20028;-77
2021/05/27 02:36:48;;;;;;;7.13;2.28;;;17.80;51.50;;;;;;5052592;28;20581;-77
2021/05/27 02:39:15;;;;;;;13.82;3.05;;;17.70;51.80;;;;;;5066325;28;20408;-77
2021/05/27 02:41:41;;;;;;;12.45;4.10;;;17.70;52.10;;;;;;5070282;28;20016;-77
2021/05/27 02:44:08;;;;;;;6.72;2.38;;;17.60;52.40;;;;;;5061251;28;20345;-78
2021/05/27 02:46:35;;;;;;;13.98;3.35;;;17.40;52.30;;;;;;5039094;28;20104;-77
2021/05/27 02:49:02;;;;;;;10.10;1.80;;;17.20;53.10;;;;;;5039941;28;20409;-77
2021/05/27 02:51:29;;;;;;;15.25;2.47;;;17.30;53.30;;;;;;5056902;28;20230;-77
2021/05/27 02:53:55;;;;;;;12.55;2.53;;;17.20;52.90;;;;;;5066835;28;20044;-77
2021/05/27 02:56:21;;;;;;;8.80;2.83;;;17.10;53.80;;;;;;5059020;28;20039;-77
2021/05/27 02:58:48;;;;;;;6.13;2.33;;;17.00;54.30;;;;;;5074865;28;20029;-77
2021/05/27 03:01:14;;;;;;;11.38;2.53;;;16.80;54.30;;;;;;5076465;28;20067;-79
2021/05/27 03:03:41;;;;;;;11.27;2.88;;;16.80;54.50;;;;;;5074450;28;20025;-79
2021/05/27 03:06:08;;;;;;;7.88;2.55;;;16.70;54.70;;;;;;5076372;28;20116;-78
2021/05/27 03:08:36;;;;;;;7.05;2.00;;;16.70;54.80;;;;;;5056871;28;20032;-77
2021/05/27 03:11:04;;;;;;;4.18;2.45;;;16.50;54.70;;;;;;5056809;28;20033;-78
2021/05/27 03:13:30;;;;;;;11.00;2.15;;;16.30;54.60;;;;;;5076203;28;20031;-77
2021/05/27 03:15:56;;;;;;;3.33;2.15;;;16.30;55.10;;;;;;5065441;28;20067;-77
2021/05/27 03:18:23;;;;;;;3.78;1.83;;;16.20;55.90;;;;;;5073546;28;20405;-77
2021/05/27 03:20:49;;;;;;;13.43;2.85;;;16.30;54.90;;;;;;5046223;28;20048;-76
2021/05/27 03:23:16;;;;;;;5.28;2.20;;;16.40;55.30;;;;;;5071381;28;20044;-77
2021/05/27 03:25:42;;;;;;;3.65;1.90;;;16.30;55.80;;;;;;5068109;28;20021;-77
2021/05/27 03:28:08;;;;;;;6.88;1.83;;;16.20;55.90;;;;;;5055728;28;20411;-77
2021/05/27 03:30:35;;;;;;;8.75;2.03;;;16.10;55.40;;;;;;5053677;28;20428;-77
2021/05/27 03:33:02;;;;;;;7.93;1.90;;;16.00;55.40;;;;;;5073204;28;20475;-77
2021/05/27 03:35:29;;;;;;;8.98;1.95;;;16.00;55.60;;;;;;5059644;28;20480;-77
2021/05/27 03:37:55;;;;;;;4.68;2.13;;;16.00;56.20;;;;;;5056694;28;20071;-77
2021/05/27 03:40:22;;;;;;;7.82;2.50;;;15.80;56.20;;;;;;5081964;28;20415;-77
2021/05/27 03:42:54;;;;;;;5.88;2.60;;;15.80;56.30;;;;;;5068921;28;20020;-76
2021/05/27 03:45:25;;;;;;;13.35;4.43;;;15.70;56.30;;;;;;5052775;28;20112;-76
2021/05/27 03:47:52;;;;;;;2.45;1.75;;;15.60;56.10;;;;;;5072716;28;20029;-77
2021/05/27 03:50:20;;;;;;;5.78;2.35;;;15.50;56.60;;;;;;5057446;28;20020;-77
2021/05/27 03:52:47;;;;;;;14.30;2.28;;;15.60;57.10;;;;;;5073960;28;20074;-78
2021/05/27 03:55:15;;;;;;;4.38;1.88;;;15.50;56.30;;;;;;5082770;28;20020;-77
2021/05/27 03:57:43;;;;;;;6.50;2.03;;;15.50;56.80;;;;;;5067703;28;20025;-77
2021/05/27 04:02:59;;;;;;;10.10;1.92;;;15.30;56.60;;;;;;5067055;28;20410;-77
2021/05/27 04:08:10;;;;;;;2.58;1.60;;;15.40;56.60;;;;;;5073491;28;20036;-77
2021/05/27 04:10:37;;;;;;;5.15;2.22;;;15.50;57.70;;;;;;5063540;28;20040;-77
2021/05/27 04:13:22;;;;;;;13.43;3.63;;;15.50;57.70;;;;;;5069175;28;20086;-77
2021/05/27 04:15:48;;;;;;;7.18;2.75;;;15.50;58.00;;;;;;5056897;28;20025;-77
2021/05/27 04:18:19;;;;;;;5.47;2.40;;;15.30;58.10;;;;;;5056688;28;20063;-77
2021/05/27 04:23:40;;;;;;;2.88;2.65;;;15.40;57.90;;;;;;5066679;28;20048;-77
2021/05/27 04:26:12;;;;;;;11.93;3.15;;;15.20;57.60;;;;;;5058342;28;20515;-78
2021/05/27 04:28:39;;;;;;;9.25;2.75;;;15.20;58.20;;;;;;5057925;28;20040;-76
2021/05/27 04:31:11;;;;;;;8.23;2.25;;;15.30;58.40;;;;;;5074314;28;20028;-77
2021/05/27 04:33:44;;;;;;;11.35;2.95;;;15.20;58.50;;;;;;5070676;28;20036;-78
2021/05/27 04:36:16;;;;;;;5.68;1.85;;;15.20;58.70;;;;;;5073156;28;20035;-77
2021/05/27 04:38:43;;;;;;;6.33;2.03;;;15.00;58.50;;;;;;5075361;28;20020;-76
2021/05/27 04:41:10;;;;;;;6.93;2.50;;;15.10;58.90;;;;;;5046002;28;20356;-77
2021/05/27 04:43:40;;;;;;;5.95;3.20;;;15.10;58.80;;;;;;5066081;28;20077;-77
2021/05/27 04:46:07;;;;;;;6.90;2.35;;;15.00;58.40;;;;;;5056217;28;20032;-77
2021/05/27 04:48:34;;;;;;;4.05;1.90;;;14.90;59.30;;;;;;5075227;28;20016;-78
2021/05/27 04:51:00;;;;;;;5.43;2.67;;;15.00;59.50;;;;;;5073864;28;20036;-77
2021/05/27 04:53:27;;;;;;;7.68;4.15;;;14.90;58.50;;;;;;5057935;28;20033;-77
2021/05/27 04:55:55;;;;;;;8.48;2.22;;;14.70;59.10;;;;;;5055474;28;20451;-78
2021/05/27 04:58:22;;;;;;;16.10;4.57;;;14.80;59.30;;;;;;5037441;28;20399;-78
2021/05/27 05:00:48;;;;;;;5.43;2.15;;;14.70;59.20;;;;;;5056507;28;20021;-77
2021/05/27 05:03:15;;;;;;;9.20;2.35;;;14.70;60.00;;;;;;5053109;28;20021;-77
2021/05/27 05:05:42;;;;;;;2.78;1.58;;;14.80;60.00;;;;;;5056462;28;20070;-77
2021/05/27 05:08:08;;;;;;;9.82;2.60;;;14.70;59.90;;;;;;5045077;28;20029;-76
2021/05/27 05:10:36;;;;;;;10.68;2.65;;;14.80;60.10;;;;;;5048775;28;20024;-76
2021/05/27 05:13:05;;;;;;;15.48;3.03;;;14.80;59.70;;;;;;5055448;28;20028;-75
2021/05/27 05:15:37;;;;;;;7.75;2.58;;;14.90;60.00;;;;;;5073421;28;20031;-77
2021/05/27 05:18:09;;;;;;;15.00;2.63;;;14.80;60.20;;;;;;5056818;28;20024;-77
2021/05/27 05:20:38;;;;;;;6.30;2.20;;;14.70;59.90;;;;;;5056989;28;20043;-76
2021/05/27 05:23:05;;;;;;;11.88;2.63;;;14.80;60.20;;;;;;5072232;28;20029;-77
2021/05/27 05:25:33;;;;;;;4.22;2.35;;;14.80;60.60;;;;;;5040341;28;20016;-78
2021/05/27 05:28:00;;;;;;;8.57;3.28;;;14.80;59.90;;;;;;5066863;28;20029;-78
2021/05/27 05:30:28;;;;;;;10.88;1.92;;;14.80;61.10;;;;;;5057363;28;20150;-78
2021/05/27 05:32:56;;;;;;;11.43;2.42;;;14.70;61.00;;;;;;5057921;28;20360;-78
2021/05/27 05:35:23;;;;;;;11.43;2.50;;;14.70;61.20;;;;;;5059257;28;20021;-77
2021/05/27 05:37:50;;;;;;;6.25;2.22;;;14.70;60.30;;;;;;5054761;28;20025;-77
2021/05/27 05:40:19;;;;;;;7.90;2.35;;;14.60;60.50;;;;;;5055831;28;20085;-77
2021/05/27 05:42:48;;;;;;;8.30;2.38;;;14.60;60.60;;;;;;5071305;28;20043;-77
2021/05/27 05:45:16;;;;;;;14.32;2.83;;;14.50;60.90;;;;;;5071543;28;20460;-77
2021/05/27 05:47:50;;;;;;;6.65;2.03;;;14.50;60.40;;;;;;5066456;28;20448;-76
2021/05/27 05:53:05;;;;;;;8.35;2.47;;;14.40;60.40;;;;;;5068374;28;20089;-78
2021/05/27 05:55:32;;;;;;;13.60;3.85;;;14.30;60.80;;;;;;5064252;28;20499;-77
2021/05/27 05:57:59;;;;;;;8.43;3.08;;;14.30;60.20;;;;;;5047698;28;20029;-77
2021/05/27 06:00:25;;;;;;;3.47;1.83;;;14.30;60.80;;;;;;5072512;28;20029;-77
2021/05/27 06:02:52;;;;;;;5.03;2.28;;;14.20;61.40;;;;;;5057094;28;20052;-77
2021/05/27 06:05:18;;;;;;;3.28;2.38;;;14.10;61.60;;;;;;5074645;28;20024;-78
2021/05/27 06:07:44;;;;;;;7.82;2.30;;;14.30;60.60;;;;;;5066169;28;20464;-77
2021/05/27 06:10:11;;;;;;;5.25;2.58;;;14.30;60.50;;;;;;5076780;28;20444;-76
2021/05/27 06:12:39;;;;;;;7.63;3.15;;;14.20;60.90;;;;;;5075838;28;20027;-77
2021/05/27 06:15:07;;;;;;;5.95;2.63;;;14.30;60.90;;;;;;5087950;28;20097;-77
2021/05/27 06:17:34;;;;;;;6.97;2.15;;;14.40;60.70;;;;;;5073642;28;20055;-77
2021/05/27 06:20:00;;;;;;;11.13;2.47;;;14.50;60.60;;;;;;5076193;28;20032;-77
2021/05/27 06:22:27;;;;;;;8.40;3.17;;;14.50;60.70;;;;;;5072774;28;20103;-77
2021/05/27 06:24:54;;;;;;;14.40;2.30;;;14.50;60.00;;;;;;5069180;28;20029;-77
2021/05/27 06:27:20;;;;;;;12.93;4.07;;;14.40;60.60;;;;;;5075235;28;20151;-77
2021/05/27 06:29:47;;;;;;;21.40;4.03;;;14.50;61.10;;;;;;5077764;28;20103;-77
2021/05/27 06:32:13;;;;;;;3.13;1.77;;;14.70;61.70;;;;;;5073317;28;20028;-77
2021/05/27 06:34:39;;;;;;;10.35;2.55;;;14.50;60.80;;;;;;5084156;28;20032;-77
2021/05/27 06:37:06;;;;;;;21.13;3.40;;;14.50;61.10;;;;;;5062115;28;20049;-77
2021/05/27 06:39:32;;;;;;;6.47;2.55;;;14.50;61.60;;;;;;5077845;28;20031;-77
2021/05/27 06:41:59;;;;;;;7.05;3.40;;;14.30;61.50;;;;;;5086217;28;20025;-77
2021/05/27 06:44:25;;;;;;;8.43;3.33;;;14.40;61.60;;;;;;5063052;28;20028;-77
2021/05/27 06:46:51;;;;;;;13.68;3.97;;;14.50;61.30;;;;;;5081535;28;20062;-77
2021/05/27 06:49:18;;;;;;;9.07;2.47;;;14.40;61.00;;;;;;5074439;28;20460;-77
2021/05/27 06:51:45;;;;;;;14.60;3.50;;;14.20;60.90;;;;;;5075226;28;20047;-77
2021/05/27 06:54:12;;;;;;;4.82;3.88;;;14.20;61.80;;;;;;5051005;28;20072;-77
2021/05/27 06:56:38;;;;;;;8.27;2.92;;;14.00;61.20;;;;;;5085524;28;20028;-78
2021/05/27 06:59:05;;;;;;;12.13;3.40;;;14.00;61.00;;;;;;5072713;28;20112;-77
2021/05/27 07:01:31;;;;;;;14.85;3.78;;;14.00;61.00;;;;;;5070094;28;20008;-76
2021/05/27 07:03:58;;;;;;;7.57;3.00;;;14.30;61.10;;;;;;5095352;28;20035;-78
2021/05/27 07:06:24;;;;;;;8.57;2.47;;;14.10;60.90;;;;;;5059843;28;20468;-79
2021/05/27 07:08:50;;;;;;;17.05;3.75;;;14.00;61.10;;;;;;5077718;28;20040;-77
2021/05/27 07:11:17;;;;;;;3.90;2.13;;;14.20;61.90;;;;;;5080675;28;20048;-78
2021/05/27 07:13:43;;;;;;;3.92;1.85;;;14.20;60.90;;;;;;5093204;28;20038;-77
2021/05/27 07:16:10;;;;;;;10.48;2.00;;;14.10;60.80;;;;;;5062127;28;20029;-77
2021/05/27 07:18:36;;;;;;;6.50;2.13;;;14.20;61.50;;;;;;5056483;28;20535;-77
2021/05/27 07:21:03;;;;;;;3.78;1.60;;;14.30;60.90;;;;;;5067281;28;20020;-77
2021/05/27 07:23:31;;;;;;;12.23;3.65;;;14.10;61.00;;;;;;5060967;28;20093;-77
2021/05/27 07:26:00;;;;;;;7.95;2.90;;;14.10;61.70;;;;;;5068453;28;20463;-77
2021/05/27 07:28:26;;;;;;;14.93;2.97;;;14.30;62.20;;;;;;5069747;28;20122;-77
2021/05/27 07:30:53;;;;;;;5.05;2.42;;;14.30;61.60;;;;;;5065659;28;20024;-77
2021/05/27 07:33:20;;;;;;;7.85;3.20;;;14.20;61.60;;;;;;5075155;28;20028;-78
2021/05/27 07:35:46;;;;;;;12.45;3.95;;;14.20;61.50;;;;;;5075587;28;20029;-77
2021/05/27 07:38:13;;;;;;;10.38;2.50;;;14.20;61.80;;;;;;5070487;28;20028;-76
2021/05/27 07:40:40;;;;;;;10.75;2.75;;;14.30;62.10;;;;;;5074846;28;20025;-77
2021/05/27 07:43:06;;;;;;;9.07;2.55;;;14.10;62.30;;;;;;5075879;28;20036;-77
2021/05/27 07:45:33;;;;;;;10.60;2.88;;;14.00;61.80;;;;;;5082986;28;20348;-77
2021/05/27 07:47:59;;;;;;;9.93;2.65;;;14.10;62.00;;;;;;5080494;28;20090;-77
2021/05/27 07:50:26;;;;;;;15.07;3.20;;;14.10;62.30;;;;;;5076041;28;20549;-76
2021/05/27 07:52:54;;;;;;;6.40;3.20;;;14.20;61.70;;;;;;5064911;28;20029;-77
2021/05/27 07:55:20;;;;;;;9.82;3.10;;;13.90;61.60;;;;;;5069220;28;20021;-77
2021/05/27 07:57:47;;;;;;;8.30;3.05;;;14.00;61.70;;;;;;5078829;28;20020;-77
2021/05/27 08:00:14;;;;;;;12.27;2.63;;;14.10;61.90;;;;;;5064707;28;20025;-77
2021/05/27 08:02:41;;;;;;;12.82;3.88;;;14.00;61.00;;;;;;5056508;28;20110;-77
2021/05/27 08:05:08;;;;;;;10.18;2.80;;;13.80;61.70;;;;;;5083326;28;20027;-77
2021/05/27 08:07:34;;;;;;;10.18;2.80;;;13.90;61.40;;;;;;5076933;28;20020;-77
2021/05/27 08:10:01;;;;;;;10.32;2.70;;;13.80;61.70;;;;;;5076885;28;20031;-77
2021/05/27 08:12:27;;;;;;;8.90;2.63;;;13.90;61.70;;;;;;5089986;28;20087;-77
2021/05/27 08:14:53;;;;;;;1.92;1.73;;;13.90;61.80;;;;;;5080161;28;20089;-77
2021/05/27 08:17:20;;;;;;;10.75;2.45;;;13.80;61.60;;;;;;5073799;28;20075;-77
2021/05/27 08:19:46;;;;;;;7.15;2.17;;;13.80;61.70;;;;;;5072492;28;20153;-76
2021/05/27 08:22:15;;;;;;;8.25;2.95;;;14.00;61.70;;;;;;5085322;28;20016;-77
2021/05/27 08:24:41;;;;;;;9.77;2.83;;;14.00;61.60;;;;;;5075331;28;20025;-77
2021/05/27 08:27:07;;;;;;;13.68;2.13;;;14.00;61.40;;;;;;5073342;28;20032;-77
2021/05/27 08:29:34;;;;;;;3.35;2.28;;;14.00;61.90;;;;;;5074016;28;20107;-76
2021/05/27 08:32:00;;;;;;;7.75;2.67;;;13.80;61.70;;;;;;5072086;28;20033;-77
2021/05/27 08:34:26;;;;;;;5.63;2.25;;;13.70;61.70;;;;;;5074165;28;20079;-77
2021/05/27 08:36:53;;;;;;;9.80;2.47;;;13.60;62.20;;;;;;5072129;28;20031;-77
2021/05/27 08:39:19;;;;;;;6.97;2.35;;;13.70;62.00;;;;;;5082149;28;20421;-77
2021/05/27 08:41:46;;;;;;;8.80;2.58;;;13.60;62.30;;;;;;5067131;28;20016;-78
2021/05/27 08:44:13;;;;;;;7.32;2.55;;;13.70;62.30;;;;;;5067206;28;20028;-77
2021/05/27 08:46:41;;;;;;;8.77;3.17;;;13.70;61.20;;;;;;5055522;28;20036;-77
2021/05/27 08:49:07;;;;;;;14.05;3.53;;;13.70;61.90;;;;;;5066454;28;20028;-76
2021/05/27 08:51:35;;;;;;;6.43;2.05;;;13.80;62.70;;;;;;5079973;28;20040;-76
2021/05/27 08:54:03;;;;;;;6.28;2.85;;;13.80;61.30;;;;;;5088609;28;20363;-77
2021/05/27 08:56:29;;;;;;;12.30;3.38;;;13.70;61.30;;;;;;5089229;28;20031;-77
2021/05/27 08:58:56;;;;;;;7.07;2.70;;;13.80;62.40;;;;;;5073276;28;20097;-77
2021/05/27 09:01:23;;;;;;;5.80;2.72;;;13.80;62.00;;;;;;5072537;28;20074;-77
2021/05/27 09:03:53;;;;;;;3.17;2.03;;;13.90;62.50;;;;;;5072464;28;20021;-77
2021/05/27 09:06:20;;;;;;;2.58;1.88;;;13.80;62.40;;;;;;5087028;28;20086;-77
2021/05/27 09:08:47;;;;;;;6.35;1.75;;;13.80;62.40;;;;;;5063236;28;20372;-78
2021/05/27 09:11:24;;;;;;;7.90;2.25;;;13.80;62.30;;;;;;5082966;28;20040;-78
2021/05/27 09:14:00;;;;;;;16.38;2.70;;;13.70;62.40;;;;;;5066770;28;20033;-77
2021/05/27 09:16:27;;;;;;;15.77;3.08;;;13.80;62.40;;;;;;5060472;28;20028;-78
2021/05/27 09:18:55;;;;;;;6.70;2.35;;;13.70;62.10;;;;;;5061824;28;20029;-77
2021/05/27 09:21:40;;;;;;;4.75;1.98;;;13.60;62.70;;;;;;5054976;28;20046;-77
2021/05/27 09:24:08;;;;;;;11.30;3.40;;;13.70;63.50;;;;;;5065343;28;20114;-77
2021/05/27 09:26:48;;;;;;;9.32;2.40;;;13.70;62.50;;;;;;5080363;28;20035;-77
2021/05/27 09:29:15;;;;;;;8.18;2.65;;;13.80;63.20;;;;;;5049126;28;20025;-77
2021/05/27 09:32:01;;;;;;;3.42;2.42;;;13.70;62.80;;;;;;5073617;28;20029;-77
2021/05/27 09:34:53;;;;;;;11.32;2.85;;;13.60;63.10;;;;;;5067980;28;20449;-77
2021/05/27 09:37:21;;;;;;;7.53;2.80;;;13.70;63.00;;;;;;5073694;28;20035;-77
2021/05/27 09:39:50;;;;;;;3.38;2.35;;;13.70;63.10;;;;;;5056009;28;20037;-77
2021/05/27 09:42:17;;;;;;;7.43;2.40;;;13.60;63.20;;;;;;5081892;28;20476;-77
2021/05/27 09:44:43;;;;;;;3.97;3.17;;;13.70;63.00;;;;;;5076527;28;20032;-77
2021/05/27 09:47:10;;;;;;;9.90;2.92;;;13.80;63.60;;;;;;5079372;28;20020;-77
2021/05/27 09:49:56;;;;;;;13.18;2.03;;;13.70;63.50;;;;;;5085890;28;20032;-77
2021/05/27 09:52:25;;;;;;;10.07;3.45;;;13.50;63.00;;;;;;5077925;28;20024;-77
2021/05/27 09:54:53;;;;;;;11.68;2.90;;;13.50;63.40;;;;;;5076598;28;20067;-77
2021/05/27 09:57:24;;;;;;;7.15;2.88;;;13.60;63.30;;;;;;5073375;28;20028;-77
2021/05/27 09:59:51;;;;;;;9.30;2.78;;;13.60;62.90;;;;;;5077567;28;20047;-77
2021/05/27 10:02:20;;;;;;;10.60;2.65;;;13.60;63.70;;;;;;5065998;28;20025;-76
2021/05/27 10:04:58;;;;;;;12.93;3.40;;;13.60;63.40;;;;;;5090739;28;20040;-77
2021/05/27 10:07:49;;;;;;;7.68;2.75;;;13.40;63.00;;;;;;5080071;28;20359;-77
2021/05/27 10:10:25;;;;;;;4.75;2.85;;;13.40;63.70;;;;;;5079101;28;20467;-77
2021/05/27 10:12:53;;;;;;;4.13;2.00;;;13.50;63.60;;;;;;5047430;28;20032;-77
2021/05/27 10:15:22;;;;;;;14.38;2.50;;;13.40;63.20;;;;;;5097770;28;20081;-77
2021/05/27 10:17:50;;;;;;;5.60;2.45;;;13.60;63.30;;;;;;5060679;28;20073;-78
2021/05/27 10:20:24;;;;;;;7.75;3.25;;;13.60;64.00;;;;;;5077921;28;20046;-77
2021/05/27 10:22:53;;;;;;;2.38;1.75;;;13.60;63.50;;;;;;5072290;28;20479;-77
2021/05/27 10:25:20;;;;;;;8.70;2.28;;;13.60;64.00;;;;;;5058787;28;20032;-78
2021/05/27 10:27:48;;;;;;;6.20;2.20;;;13.50;63.40;;;;;;5080170;28;20411;-77
2021/05/27 10:30:15;;;;;;;8.23;2.50;;;13.40;63.90;;;;;;5064579;28;20033;-77
2021/05/27 10:32:54;;;;;;;4.57;2.65;;;13.30;63.90;;;;;;5071801;28;20375;-77
2021/05/27 10:35:20;;;;;;;7.45;2.42;;;13.50;63.40;;;;;;5079014;28;20031;-77
2021/05/27 10:37:49;;;;;;;8.27;3.38;;;13.40;63.50;;;;;;5060228;28;20035;-77
2021/05/27 10:40:15;;;;;;;7.50;2.55;;;13.30;64.90;;;;;;5068502;28;20033;-77
2021/05/27 10:42:57;;;;;;;12.55;2.70;;;13.30;63.80;;;;;;5065714;28;20044;-77
2021/05/27 10:45:36;;;;;;;5.60;2.40;;;13.40;63.50;;;;;;5057391;28;20044;-77
2021/05/27 10:48:14;;;;;;;4.32;2.25;;;13.40;64.40;;;;;;5079434;28;20035;-77
2021/05/27 10:50:51;;;;;;;5.80;1.85;;;13.50;63.90;;;;;;5071330;28;20024;-77
2021/05/27 10:53:42;;;;;;;8.23;2.90;;;13.50;63.90;;;;;;5082937;28;20325;-77
2021/05/27 10:56:33;;;;;;;7.47;3.30;;;13.40;63.40;;;;;;5081241;28;20091;-77
2021/05/27 10:58:59;;;;;;;4.43;1.98;;;13.40;63.40;;;;;;5050185;28;20128;-77
2021/05/27 11:01:29;;;;;;;7.38;2.55;;;13.40;63.40;;;;;;5083214;28;20024;-77
2021/05/27 11:03:56;;;;;;;7.65;2.78;;;13.50;64.40;;;;;;5062163;28;20337;-77
2021/05/27 11:06:23;;;;;;;5.10;1.90;;;13.40;64.60;;;;;;5076706;28;20020;-77
2021/05/27 11:09:10;;;;;;;9.85;3.78;;;13.30;65.00;;;;;;5079304;28;20066;-78
2021/05/27 11:11:57;;;;;;;4.90;2.35;;;13.40;63.80;;;;;;5072627;28;20448;-79
2021/05/27 11:14:34;;;;;;;11.60;3.10;;;13.40;64.20;;;;;;5071108;28;20036;-79
2021/05/27 11:17:04;;;;;;;11.55;3.95;;;13.50;64.30;;;;;;5060133;28;20546;-77
2021/05/27 11:19:51;;;;;;;4.30;2.28;;;13.60;64.30;;;;;;5058222;28;20082;-77
2021/05/27 11:25:19;;;;;;;15.23;5.95;;;13.10;65.40;;;;;;5075317;28;20048;-78
2021/05/27 11:28:00;;;;;;;8.95;2.08;;;13.30;64.90;;;;;;5077707;28;20325;-77
2021/05/27 11:30:28;;;;;;;8.57;2.05;;;13.20;64.60;;;;;;5093373;28;20028;-77
2021/05/27 11:32:58;;;;;;;5.63;3.17;;;13.20;64.70;;;;;;5064132;28;20021;-77
2021/05/27 11:35:27;;;;;;;5.35;1.80;;;13.30;64.00;;;;;;5056839;28;20078;-77
2021/05/27 11:37:54;;;;;;;5.05;2.15;;;13.40;64.20;;;;;;5073566;28;20028;-77
2021/05/27 11:40:30;;;;;;;2.38;1.63;;;13.30;63.70;;;;;;5075233;28;20039;-77
2021/05/27 11:42:56;;;;;;;5.30;1.90;;;13.50;64.00;;;;;;5068150;28;20485;-77
2021/05/27 11:45:25;;;;;;;9.20;2.25;;;13.40;64.20;;;;;;5081838;28;20028;-77
2021/05/27 11:48:13;;;;;;;9.00;1.95;;;13.30;64.70;;;;;;5073688;28;20059;-77
2021/05/27 11:50:39;;;;;;;11.07;3.20;;;13.20;65.40;;;;;;5075561;28;20145;-77
2021/05/27 11:53:06;;;;;;;5.38;2.80;;;13.20;64.60;;;;;;5075965;28;20347;-77
2021/05/27 11:55:34;;;;;;;6.82;2.08;;;13.30;64.00;;;;;;5058843;28;20052;-77
2021/05/27 11:58:01;;;;;;;10.40;2.97;;;13.30;64.30;;;;;;5055845;28;20490;-77
2021/05/27 12:00:28;;;;;;;2.55;1.80;;;13.30;64.10;;;;;;5059643;28;20115;-77
2021/05/27 12:02:58;;;;;;;5.55;1.80;;;13.30;64.20;;;;;;5073951;28;20031;-77
2021/05/27 12:05:30;;;;;;;12.65;2.55;;;13.30;63.60;;;;;;5064125;28;20029;-77
2021/05/27 12:07:57;;;;;;;2.60;2.40;;;13.30;63.80;;;;;;5081549;28;20099;-77
2021/05/27 12:10:29;;;;;;;2.95;2.47;;;13.30;64.00;;;;;;5077225;28;20027;-77
2021/05/27 12:12:56;;;;;;;7.40;2.90;;;13.20;63.80;;;;;;5074509;28;20115;-76
2021/05/27 12:15:23;;;;;;;8.50;2.60;;;13.20;63.50;;;;;;5073404;28;20089;-77
2021/05/27 12:17:57;;;;;;;9.73;2.40;;;13.20;63.60;;;;;;5074342;28;20111;-77
2021/05/27 12:20:35;;;;;;;9.50;2.60;;;13.10;64.10;;;;;;5055560;28;20111;-77
2021/05/27 12:23:04;;;;;;;10.43;2.30;;;13.20;63.70;;;;;;5077056;28;20027;-77
2021/05/27 12:25:32;;;;;;;10.85;3.17;;;13.40;63.30;;;;;;5073105;28;20451;-77
2021/05/27 12:28:20;;;;;;;9.05;2.97;;;13.50;63.50;;;;;;5084104;28;20053;-77
2021/05/27 12:30:54;;;;;;;4.60;2.22;;;13.40;63.20;;;;;;5088316;28;20066;-77
2021/05/27 12:33:23;;;;;;;4.40;1.73;;;13.40;63.40;;;;;;5056578;28;20452;-78
2021/05/27 12:35:51;;;;;;;4.75;2.67;;;13.10;64.40;;;;;;5063434;28;20032;-77
2021/05/27 12:38:23;;;;;;;4.97;1.88;;;13.40;64.40;;;;;;5086298;28;20051;-77
2021/05/27 12:41:04;;;;;;;5.10;3.47;;;13.30;63.50;;;;;;5061474;28;20455;-77
2021/05/27 12:43:34;;;;;;;2.13;1.95;;;13.30;63.40;;;;;;5054787;28;20028;-78
2021/05/27 12:46:01;;;;;;;13.07;2.97;;;13.20;64.20;;;;;;5063602;28;20027;-77
2021/05/27 12:48:30;;;;;;;4.93;1.95;;;13.30;63.70;;;;;;5064758;28;20024;-77
2021/05/27 12:50:59;;;;;;;4.65;2.45;;;13.20;64.70;;;;;;5054841;28;20367;-77
2021/05/27 12:53:35;;;;;;;5.20;2.50;;;13.20;63.90;;;;;;5068118;28;20028;-77
2021/05/27 12:56:12;;;;;;;8.82;2.40;;;13.10;64.40;;;;;;5074345;28;20524;-77
2021/05/27 12:58:41;;;;;;;2.03;1.50;;;13.20;64.90;;;;;;5075214;28;20114;-77
2021/05/27 13:01:08;;;;;;;3.35;1.73;;;13.30;63.40;;;;;;5072107;28;20028;-77
2021/05/27 13:03:45;;;;;;;2.13;1.73;;;13.40;63.90;;;;;;5071864;28;20016;-78
2021/05/27 13:06:15;;;;;;;5.63;1.88;;;13.60;63.60;;;;;;5071233;28;20059;-77
2021/05/27 13:08:42;;;;;;;6.93;2.10;;;13.50;63.30;;;;;;5080556;28;20032;-77